sensor_id;sensor_type;location;lat;lon;timestamp;P1;durP1;ratioP1;P2;durP2;ratioP2
3991;SDS011;2010;48.194;16.394;2022-09-17T00:01:21;6.57;;;3.20;;
3991;SDS011;2010;48.194;16.394;2022-09-17T00:03:51;3.83;;;3.20;;
3991;SDS011;2010;48.194;16.394;2022-09-17T00:06:23;3.63;;;3.33;;
3991;SDS011;2010;48.194;16.394;2022-09-17T00:08:52;4.80;;;3.60;;
3991;SDS011;2010;48.194;16.394;2022-09-17T00:11:20;3.60;;;3.30;;
3991;SDS011;2010;48.194;16.394;2022-09-17T00:13:51;3.40;;;3.10;;
3991;SDS011;2010;48.194;16.394;2022-09-17T00:16:21;6.10;;;3.83;;
3991;SDS011;2010;48.194;16.394;2022-09-17T00:18:52;4.23;;;3.30;;
3991;SDS011;2010;48.194;16.394;2022-09-17T00:21:20;4.47;;;3.07;;
3991;SDS011;2010;48.194;16.394;2022-09-17T00:23:53;3.87;;;3.10;;
3991;SDS011;2010;48.194;16.394;2022-09-17T00:26:22;3.30;;;3.10;;
3991;SDS011;2010;48.194;16.394;2022-09-17T00:28:51;4.33;;;3.40;;
3991;SDS011;2010;48.194;16.394;2022-09-17T00:31:19;4.77;;;2.83;;
3991;SDS011;2010;48.194;16.394;2022-09-17T00:33:48;3.27;;;3.07;;
3991;SDS011;2010;48.194;16.394;2022-09-17T00:36:17;3.10;;;2.90;;
3991;SDS011;2010;48.194;16.394;2022-09-17T00:38:47;3.33;;;3.03;;
3991;SDS011;2010;48.194;16.394;2022-09-17T00:41:17;5.87;;;3.37;;
3991;SDS011;2010;48.194;16.394;2022-09-17T00:43:46;3.83;;;3.53;;
3991;SDS011;2010;48.194;16.394;2022-09-17T00:46:23;6.10;;;3.40;;
3991;SDS011;2010;48.194;16.394;2022-09-17T00:48:56;3.63;;;3.30;;
3991;SDS011;2010;48.194;16.394;2022-09-17T00:51:26;3.10;;;2.90;;
3991;SDS011;2010;48.194;16.394;2022-09-17T00:53:55;3.67;;;3.37;;
3991;SDS011;2010;48.194;16.394;2022-09-17T00:56:26;4.57;;;3.73;;
3991;SDS011;2010;48.194;16.394;2022-09-17T00:58:55;3.60;;;3.30;;
3991;SDS011;2010;48.194;16.394;2022-09-17T01:01:23;5.00;;;3.40;;
3991;SDS011;2010;48.194;16.394;2022-09-17T01:03:52;3.20;;;2.90;;
3991;SDS011;2010;48.194;16.394;2022-09-17T01:06:21;3.27;;;2.97;;
3991;SDS011;2010;48.194;16.394;2022-09-17T01:09:01;5.07;;;3.57;;
3991;SDS011;2010;48.194;16.394;2022-09-17T01:11:43;3.20;;;3.00;;
3991;SDS011;2010;48.194;16.394;2022-09-17T01:14:22;3.20;;;2.90;;
3991;SDS011;2010;48.194;16.394;2022-09-17T01:16:59;3.20;;;2.60;;
3991;SDS011;2010;48.194;16.394;2022-09-17T01:22:41;3.40;;;3.13;;
3991;SDS011;2010;48.194;16.394;2022-09-17T01:25:21;3.33;;;3.13;;
3991;SDS011;2010;48.194;16.394;2022-09-17T01:31:14;4.00;;;2.87;;
3991;SDS011;2010;48.194;16.394;2022-09-17T01:33:50;6.17;;;3.30;;
3991;SDS011;2010;48.194;16.394;2022-09-17T01:36:25;3.60;;;3.30;;
3991;SDS011;2010;48.194;16.394;2022-09-17T01:39:02;4.83;;;3.27;;
3991;SDS011;2010;48.194;16.394;2022-09-17T01:41:36;3.60;;;3.30;;
3991;SDS011;2010;48.194;16.394;2022-09-17T01:44:09;3.97;;;3.60;;
3991;SDS011;2010;48.194;16.394;2022-09-17T01:46:42;5.40;;;3.60;;
3991;SDS011;2010;48.194;16.394;2022-09-17T01:49:11;4.10;;;3.43;;
3991;SDS011;2010;48.194;16.394;2022-09-17T01:51:43;3.47;;;3.20;;
3991;SDS011;2010;48.194;16.394;2022-09-17T01:54:15;4.47;;;4.07;;
3991;SDS011;2010;48.194;16.394;2022-09-17T01:56:49;5.13;;;3.47;;
3991;SDS011;2010;48.194;16.394;2022-09-17T01:59:21;5.00;;;3.87;;
3991;SDS011;2010;48.194;16.394;2022-09-17T02:01:52;5.60;;;3.47;;
3991;SDS011;2010;48.194;16.394;2022-09-17T02:04:24;4.73;;;3.80;;
3991;SDS011;2010;48.194;16.394;2022-09-17T02:06:55;3.80;;;3.50;;
3991;SDS011;2010;48.194;16.394;2022-09-17T02:09:26;4.00;;;3.70;;
3991;SDS011;2010;48.194;16.394;2022-09-17T02:11:58;9.10;;;3.97;;
3991;SDS011;2010;48.194;16.394;2022-09-17T02:14:27;4.77;;;4.30;;
3991;SDS011;2010;48.194;16.394;2022-09-17T02:16:59;4.00;;;3.70;;
3991;SDS011;2010;48.194;16.394;2022-09-17T02:19:31;4.30;;;3.73;;
3991;SDS011;2010;48.194;16.394;2022-09-17T02:22:04;4.27;;;3.87;;
3991;SDS011;2010;48.194;16.394;2022-09-17T02:24:36;5.17;;;3.77;;
3991;SDS011;2010;48.194;16.394;2022-09-17T02:27:09;4.20;;;3.80;;
3991;SDS011;2010;48.194;16.394;2022-09-17T02:29:41;4.07;;;3.77;;
3991;SDS011;2010;48.194;16.394;2022-09-17T02:32:11;4.93;;;4.50;;
3991;SDS011;2010;48.194;16.394;2022-09-17T02:34:40;8.00;;;4.10;;
3991;SDS011;2010;48.194;16.394;2022-09-17T02:37:08;5.40;;;4.37;;
3991;SDS011;2010;48.194;16.394;2022-09-17T02:39:36;5.10;;;4.60;;
3991;SDS011;2010;48.194;16.394;2022-09-17T02:42:07;4.70;;;4.30;;
3991;SDS011;2010;48.194;16.394;2022-09-17T02:44:43;5.60;;;4.20;;
3991;SDS011;2010;48.194;16.394;2022-09-17T02:47:27;5.77;;;4.40;;
3991;SDS011;2010;48.194;16.394;2022-09-17T02:50:07;5.73;;;4.20;;
3991;SDS011;2010;48.194;16.394;2022-09-17T02:52:45;6.80;;;4.57;;
3991;SDS011;2010;48.194;16.394;2022-09-17T02:55:22;4.90;;;4.33;;
3991;SDS011;2010;48.194;16.394;2022-09-17T02:57:57;4.37;;;4.00;;
3991;SDS011;2010;48.194;16.394;2022-09-17T03:00:28;4.60;;;4.20;;
3991;SDS011;2010;48.194;16.394;2022-09-17T03:02:58;5.97;;;4.10;;
3991;SDS011;2010;48.194;16.394;2022-09-17T03:05:29;6.73;;;5.10;;
3991;SDS011;2010;48.194;16.394;2022-09-17T03:07:58;4.60;;;3.93;;
3991;SDS011;2010;48.194;16.394;2022-09-17T03:10:26;4.50;;;3.80;;
3991;SDS011;2010;48.194;16.394;2022-09-17T03:12:56;5.57;;;5.00;;
3991;SDS011;2010;48.194;16.394;2022-09-17T03:15:24;8.50;;;3.97;;
3991;SDS011;2010;48.194;16.394;2022-09-17T03:17:52;5.47;;;4.13;;
3991;SDS011;2010;48.194;16.394;2022-09-17T03:20:22;4.43;;;3.83;;
3991;SDS011;2010;48.194;16.394;2022-09-17T03:22:50;3.43;;;3.23;;
3991;SDS011;2010;48.194;16.394;2022-09-17T03:25:18;5.23;;;3.87;;
3991;SDS011;2010;48.194;16.394;2022-09-17T03:27:46;4.17;;;3.37;;
3991;SDS011;2010;48.194;16.394;2022-09-17T03:30:15;4.10;;;3.80;;
3991;SDS011;2010;48.194;16.394;2022-09-17T03:32:43;4.30;;;4.00;;
3991;SDS011;2010;48.194;16.394;2022-09-17T03:35:12;4.60;;;4.20;;
3991;SDS011;2010;48.194;16.394;2022-09-17T03:37:41;4.67;;;3.70;;
3991;SDS011;2010;48.194;16.394;2022-09-17T03:40:09;3.10;;;2.90;;
3991;SDS011;2010;48.194;16.394;2022-09-17T03:42:37;4.17;;;3.43;;
3991;SDS011;2010;48.194;16.394;2022-09-17T03:45:06;4.00;;;3.60;;
3991;SDS011;2010;48.194;16.394;2022-09-17T03:47:35;4.80;;;3.30;;
3991;SDS011;2010;48.194;16.394;2022-09-17T03:50:07;5.17;;;3.90;;
3991;SDS011;2010;48.194;16.394;2022-09-17T03:52:35;5.90;;;3.67;;
3991;SDS011;2010;48.194;16.394;2022-09-17T03:55:05;3.70;;;2.90;;
3991;SDS011;2010;48.194;16.394;2022-09-17T03:57:34;8.13;;;4.13;;
3991;SDS011;2010;48.194;16.394;2022-09-17T04:00:02;5.70;;;3.63;;
3991;SDS011;2010;48.194;16.394;2022-09-17T04:02:37;3.57;;;3.30;;
3991;SDS011;2010;48.194;16.394;2022-09-17T04:05:06;3.87;;;3.57;;
3991;SDS011;2010;48.194;16.394;2022-09-17T04:07:35;3.97;;;3.50;;
3991;SDS011;2010;48.194;16.394;2022-09-17T04:10:05;4.57;;;3.40;;
3991;SDS011;2010;48.194;16.394;2022-09-17T04:12:33;9.27;;;3.73;;
3991;SDS011;2010;48.194;16.394;2022-09-17T04:15:02;4.07;;;3.67;;
3991;SDS011;2010;48.194;16.394;2022-09-17T04:17:30;9.70;;;3.80;;
3991;SDS011;2010;48.194;16.394;2022-09-17T04:19:59;4.77;;;4.13;;
3991;SDS011;2010;48.194;16.394;2022-09-17T04:22:27;4.00;;;3.70;;
3991;SDS011;2010;48.194;16.394;2022-09-17T04:24:55;5.43;;;4.30;;
3991;SDS011;2010;48.194;16.394;2022-09-17T04:27:24;4.73;;;4.00;;
3991;SDS011;2010;48.194;16.394;2022-09-17T04:29:52;5.20;;;4.63;;
3991;SDS011;2010;48.194;16.394;2022-09-17T04:32:20;5.43;;;4.90;;
3991;SDS011;2010;48.194;16.394;2022-09-17T04:34:49;5.20;;;4.70;;
3991;SDS011;2010;48.194;16.394;2022-09-17T04:37:17;7.03;;;4.70;;
3991;SDS011;2010;48.194;16.394;2022-09-17T04:39:45;4.30;;;3.90;;
3991;SDS011;2010;48.194;16.394;2022-09-17T04:42:14;6.00;;;5.37;;
3991;SDS011;2010;48.194;16.394;2022-09-17T04:44:43;5.00;;;4.50;;
3991;SDS011;2010;48.194;16.394;2022-09-17T04:47:12;5.37;;;4.87;;
3991;SDS011;2010;48.194;16.394;2022-09-17T04:49:40;6.63;;;4.80;;
3991;SDS011;2010;48.194;16.394;2022-09-17T04:52:08;5.10;;;4.70;;
3991;SDS011;2010;48.194;16.394;2022-09-17T04:54:36;5.60;;;4.70;;
3991;SDS011;2010;48.194;16.394;2022-09-17T04:57:04;8.17;;;5.43;;
3991;SDS011;2010;48.194;16.394;2022-09-17T04:59:32;6.57;;;4.73;;
3991;SDS011;2010;48.194;16.394;2022-09-17T05:02:02;5.13;;;4.57;;
3991;SDS011;2010;48.194;16.394;2022-09-17T05:04:30;5.60;;;5.00;;
3991;SDS011;2010;48.194;16.394;2022-09-17T05:06:58;5.17;;;4.60;;
3991;SDS011;2010;48.194;16.394;2022-09-17T05:09:26;5.30;;;4.80;;
3991;SDS011;2010;48.194;16.394;2022-09-17T05:11:55;5.37;;;4.90;;
3991;SDS011;2010;48.194;16.394;2022-09-17T05:14:23;5.80;;;5.23;;
3991;SDS011;2010;48.194;16.394;2022-09-17T05:16:51;5.43;;;4.93;;
3991;SDS011;2010;48.194;16.394;2022-09-17T05:19:20;5.20;;;4.70;;
3991;SDS011;2010;48.194;16.394;2022-09-17T05:21:48;8.13;;;6.53;;
3991;SDS011;2010;48.194;16.394;2022-09-17T05:24:17;6.70;;;6.10;;
3991;SDS011;2010;48.194;16.394;2022-09-17T05:26:45;7.17;;;4.73;;
3991;SDS011;2010;48.194;16.394;2022-09-17T05:29:13;6.40;;;5.63;;
3991;SDS011;2010;48.194;16.394;2022-09-17T05:31:41;6.43;;;5.83;;
3991;SDS011;2010;48.194;16.394;2022-09-17T05:34:09;5.93;;;5.43;;
3991;SDS011;2010;48.194;16.394;2022-09-17T05:36:40;5.70;;;5.20;;
3991;SDS011;2010;48.194;16.394;2022-09-17T05:39:08;10.10;;;5.13;;
3991;SDS011;2010;48.194;16.394;2022-09-17T05:41:36;5.30;;;4.90;;
3991;SDS011;2010;48.194;16.394;2022-09-17T05:44:04;5.17;;;4.77;;
3991;SDS011;2010;48.194;16.394;2022-09-17T05:46:32;5.60;;;4.20;;
3991;SDS011;2010;48.194;16.394;2022-09-17T05:49:00;8.57;;;4.73;;
3991;SDS011;2010;48.194;16.394;2022-09-17T05:51:29;4.70;;;4.30;;
3991;SDS011;2010;48.194;16.394;2022-09-17T05:53:59;4.47;;;4.17;;
3991;SDS011;2010;48.194;16.394;2022-09-17T05:56:27;4.97;;;4.57;;
3991;SDS011;2010;48.194;16.394;2022-09-17T05:58:55;4.40;;;4.00;;
3991;SDS011;2010;48.194;16.394;2022-09-17T06:01:24;4.70;;;4.00;;
3991;SDS011;2010;48.194;16.394;2022-09-17T06:03:52;4.07;;;3.57;;
3991;SDS011;2010;48.194;16.394;2022-09-17T06:06:21;4.03;;;3.63;;
3991;SDS011;2010;48.194;16.394;2022-09-17T06:08:49;4.23;;;3.93;;
3991;SDS011;2010;48.194;16.394;2022-09-17T06:11:18;4.10;;;3.70;;
3991;SDS011;2010;48.194;16.394;2022-09-17T06:13:46;6.33;;;5.10;;
3991;SDS011;2010;48.194;16.394;2022-09-17T06:16:19;4.53;;;3.80;;
3991;SDS011;2010;48.194;16.394;2022-09-17T06:18:48;4.33;;;3.67;;
3991;SDS011;2010;48.194;16.394;2022-09-17T06:21:18;5.20;;;3.83;;
3991;SDS011;2010;48.194;16.394;2022-09-17T06:23:48;3.97;;;3.20;;
3991;SDS011;2010;48.194;16.394;2022-09-17T06:26:17;5.63;;;3.30;;
3991;SDS011;2010;48.194;16.394;2022-09-17T06:28:46;4.83;;;3.70;;
3991;SDS011;2010;48.194;16.394;2022-09-17T06:31:14;4.20;;;3.90;;
3991;SDS011;2010;48.194;16.394;2022-09-17T06:33:43;4.33;;;3.93;;
3991;SDS011;2010;48.194;16.394;2022-09-17T06:36:11;3.83;;;3.53;;
3991;SDS011;2010;48.194;16.394;2022-09-17T06:38:40;3.93;;;3.53;;
3991;SDS011;2010;48.194;16.394;2022-09-17T06:41:08;5.93;;;3.43;;
3991;SDS011;2010;48.194;16.394;2022-09-17T06:43:39;4.23;;;3.83;;
3991;SDS011;2010;48.194;16.394;2022-09-17T06:46:08;4.63;;;3.50;;
3991;SDS011;2010;48.194;16.394;2022-09-17T06:48:37;3.40;;;3.00;;
3991;SDS011;2010;48.194;16.394;2022-09-17T06:51:06;2.73;;;2.63;;
3991;SDS011;2010;48.194;16.394;2022-09-17T06:53:35;3.20;;;3.00;;
3991;SDS011;2010;48.194;16.394;2022-09-17T06:56:04;3.20;;;3.00;;
3991;SDS011;2010;48.194;16.394;2022-09-17T06:58:34;3.37;;;3.07;;
3991;SDS011;2010;48.194;16.394;2022-09-17T07:01:05;3.70;;;3.40;;
3991;SDS011;2010;48.194;16.394;2022-09-17T07:03:33;3.00;;;2.80;;
3991;SDS011;2010;48.194;16.394;2022-09-17T07:06:01;3.40;;;3.10;;
3991;SDS011;2010;48.194;16.394;2022-09-17T07:08:30;3.40;;;3.10;;
3991;SDS011;2010;48.194;16.394;2022-09-17T07:11:00;5.20;;;2.87;;
3991;SDS011;2010;48.194;16.394;2022-09-17T07:13:28;3.43;;;2.70;;
3991;SDS011;2010;48.194;16.394;2022-09-17T07:15:59;2.80;;;2.60;;
3991;SDS011;2010;48.194;16.394;2022-09-17T07:18:30;3.00;;;2.70;;
3991;SDS011;2010;48.194;16.394;2022-09-17T07:20:59;2.70;;;2.50;;
3991;SDS011;2010;48.194;16.394;2022-09-17T07:23:28;2.90;;;2.70;;
3991;SDS011;2010;48.194;16.394;2022-09-17T07:25:57;2.97;;;2.70;;
3991;SDS011;2010;48.194;16.394;2022-09-17T07:28:27;2.73;;;2.53;;
3991;SDS011;2010;48.194;16.394;2022-09-17T07:30:55;8.80;;;3.60;;
3991;SDS011;2010;48.194;16.394;2022-09-17T07:33:24;2.97;;;2.60;;
3991;SDS011;2010;48.194;16.394;2022-09-17T07:35:56;3.50;;;3.20;;
3991;SDS011;2010;48.194;16.394;2022-09-17T07:38:26;5.80;;;2.90;;
3991;SDS011;2010;48.194;16.394;2022-09-17T07:40:55;3.70;;;3.40;;
3991;SDS011;2010;48.194;16.394;2022-09-17T07:43:25;5.70;;;3.13;;
3991;SDS011;2010;48.194;16.394;2022-09-17T07:45:53;3.27;;;2.93;;
3991;SDS011;2010;48.194;16.394;2022-09-17T07:48:24;3.37;;;3.07;;
3991;SDS011;2010;48.194;16.394;2022-09-17T07:50:52;3.83;;;3.50;;
3991;SDS011;2010;48.194;16.394;2022-09-17T07:53:21;4.83;;;3.13;;
3991;SDS011;2010;48.194;16.394;2022-09-17T07:55:50;3.17;;;2.97;;
3991;SDS011;2010;48.194;16.394;2022-09-17T07:58:19;5.07;;;3.43;;
3991;SDS011;2010;48.194;16.394;2022-09-17T08:00:47;3.53;;;3.23;;
3991;SDS011;2010;48.194;16.394;2022-09-17T08:03:15;6.30;;;3.30;;
3991;SDS011;2010;48.194;16.394;2022-09-17T08:05:44;3.80;;;3.37;;
3991;SDS011;2010;48.194;16.394;2022-09-17T08:08:13;5.50;;;3.67;;
3991;SDS011;2010;48.194;16.394;2022-09-17T08:10:48;4.17;;;3.87;;
3991;SDS011;2010;48.194;16.394;2022-09-17T08:13:16;3.33;;;3.13;;
3991;SDS011;2010;48.194;16.394;2022-09-17T08:15:44;3.50;;;3.20;;
3991;SDS011;2010;48.194;16.394;2022-09-17T08:18:14;3.93;;;3.53;;
3991;SDS011;2010;48.194;16.394;2022-09-17T08:20:42;3.20;;;2.93;;
3991;SDS011;2010;48.194;16.394;2022-09-17T08:23:10;3.50;;;3.20;;
3991;SDS011;2010;48.194;16.394;2022-09-17T08:25:38;6.10;;;3.40;;
3991;SDS011;2010;48.194;16.394;2022-09-17T08:28:08;3.13;;;2.90;;
3991;SDS011;2010;48.194;16.394;2022-09-17T08:30:36;3.30;;;2.87;;
3991;SDS011;2010;48.194;16.394;2022-09-17T08:33:04;3.47;;;3.27;;
3991;SDS011;2010;48.194;16.394;2022-09-17T08:35:32;4.53;;;3.77;;
3991;SDS011;2010;48.194;16.394;2022-09-17T08:38:00;3.50;;;3.20;;
3991;SDS011;2010;48.194;16.394;2022-09-17T08:40:28;3.03;;;2.93;;
3991;SDS011;2010;48.194;16.394;2022-09-17T08:42:58;3.40;;;3.10;;
3991;SDS011;2010;48.194;16.394;2022-09-17T08:45:29;4.40;;;3.00;;
3991;SDS011;2010;48.194;16.394;2022-09-17T08:48:00;3.17;;;2.97;;
3991;SDS011;2010;48.194;16.394;2022-09-17T08:50:31;3.03;;;2.83;;
3991;SDS011;2010;48.194;16.394;2022-09-17T08:55:55;3.10;;;2.90;;
3991;SDS011;2010;48.194;16.394;2022-09-17T08:58:32;3.13;;;2.93;;
3991;SDS011;2010;48.194;16.394;2022-09-17T09:01:13;5.10;;;2.83;;
3991;SDS011;2010;48.194;16.394;2022-09-17T09:04:06;2.67;;;2.47;;
3991;SDS011;2010;48.194;16.394;2022-09-17T09:06:45;2.47;;;2.37;;
3991;SDS011;2010;48.194;16.394;2022-09-17T09:09:17;2.80;;;2.10;;
3991;SDS011;2010;48.194;16.394;2022-09-17T09:11:48;2.57;;;2.20;;
3991;SDS011;2010;48.194;16.394;2022-09-17T09:14:23;7.37;;;2.33;;
3991;SDS011;2010;48.194;16.394;2022-09-17T09:16:56;2.50;;;2.23;;
3991;SDS011;2010;48.194;16.394;2022-09-17T09:19:27;2.30;;;2.10;;
3991;SDS011;2010;48.194;16.394;2022-09-17T09:22:00;2.60;;;2.00;;
3991;SDS011;2010;48.194;16.394;2022-09-17T09:24:34;3.20;;;1.80;;
3991;SDS011;2010;48.194;16.394;2022-09-17T09:27:17;2.03;;;1.93;;
3991;SDS011;2010;48.194;16.394;2022-09-17T09:29:52;4.40;;;1.80;;
3991;SDS011;2010;48.194;16.394;2022-09-17T09:32:33;2.43;;;2.23;;
3991;SDS011;2010;48.194;16.394;2022-09-17T09:35:13;1.87;;;1.70;;
3991;SDS011;2010;48.194;16.394;2022-09-17T09:37:45;2.20;;;2.00;;
3991;SDS011;2010;48.194;16.394;2022-09-17T09:40:22;3.43;;;2.23;;
3991;SDS011;2010;48.194;16.394;2022-09-17T09:42:58;4.97;;;2.30;;
3991;SDS011;2010;48.194;16.394;2022-09-17T09:45:32;4.23;;;2.17;;
3991;SDS011;2010;48.194;16.394;2022-09-17T09:48:09;2.00;;;1.90;;
3991;SDS011;2010;48.194;16.394;2022-09-17T09:50:46;3.10;;;2.10;;
3991;SDS011;2010;48.194;16.394;2022-09-17T09:53:36;1.73;;;1.53;;
3991;SDS011;2010;48.194;16.394;2022-09-17T09:56:17;5.03;;;1.80;;
3991;SDS011;2010;48.194;16.394;2022-09-17T09:58:56;2.00;;;1.50;;
3991;SDS011;2010;48.194;16.394;2022-09-17T10:01:25;3.20;;;1.83;;
3991;SDS011;2010;48.194;16.394;2022-09-17T10:03:56;2.17;;;1.70;;
3991;SDS011;2010;48.194;16.394;2022-09-17T10:06:27;3.00;;;1.93;;
3991;SDS011;2010;48.194;16.394;2022-09-17T10:09:09;3.23;;;2.50;;
3991;SDS011;2010;48.194;16.394;2022-09-17T10:11:40;1.50;;;1.40;;
3991;SDS011;2010;48.194;16.394;2022-09-17T10:14:13;3.60;;;1.93;;
3991;SDS011;2010;48.194;16.394;2022-09-17T10:16:47;1.67;;;1.57;;
3991;SDS011;2010;48.194;16.394;2022-09-17T10:19:19;3.60;;;1.90;;
3991;SDS011;2010;48.194;16.394;2022-09-17T10:21:51;1.90;;;1.80;;
3991;SDS011;2010;48.194;16.394;2022-09-17T10:24:21;3.80;;;2.00;;
3991;SDS011;2010;48.194;16.394;2022-09-17T10:26:58;4.33;;;2.17;;
3991;SDS011;2010;48.194;16.394;2022-09-17T10:29:28;5.20;;;2.23;;
3991;SDS011;2010;48.194;16.394;2022-09-17T10:31:57;4.30;;;2.33;;
3991;SDS011;2010;48.194;16.394;2022-09-17T10:34:28;2.20;;;2.00;;
3991;SDS011;2010;48.194;16.394;2022-09-17T10:36:58;2.23;;;2.10;;
3991;SDS011;2010;48.194;16.394;2022-09-17T10:39:31;2.90;;;1.83;;
3991;SDS011;2010;48.194;16.394;2022-09-17T10:42:02;3.33;;;1.97;;
3991;SDS011;2010;48.194;16.394;2022-09-17T10:44:33;3.50;;;1.77;;
3991;SDS011;2010;48.194;16.394;2022-09-17T10:47:03;2.73;;;1.83;;
3991;SDS011;2010;48.194;16.394;2022-09-17T10:49:36;3.03;;;1.50;;
3991;SDS011;2010;48.194;16.394;2022-09-17T10:52:10;1.73;;;1.50;;
3991;SDS011;2010;48.194;16.394;2022-09-17T10:57:42;3.20;;;1.90;;
3991;SDS011;2010;48.194;16.394;2022-09-17T11:00:34;5.53;;;1.83;;
3991;SDS011;2010;48.194;16.394;2022-09-17T11:06:26;3.03;;;2.00;;
3991;SDS011;2010;48.194;16.394;2022-09-17T11:09:15;3.60;;;2.03;;
3991;SDS011;2010;48.194;16.394;2022-09-17T11:11:57;4.83;;;1.97;;
3991;SDS011;2010;48.194;16.394;2022-09-17T11:14:38;3.13;;;1.63;;
3991;SDS011;2010;48.194;16.394;2022-09-17T11:17:19;2.67;;;2.17;;
3991;SDS011;2010;48.194;16.394;2022-09-17T11:19:57;6.63;;;1.77;;
3991;SDS011;2010;48.194;16.394;2022-09-17T11:22:31;2.17;;;2.03;;
3991;SDS011;2010;48.194;16.394;2022-09-17T11:25:24;2.33;;;1.37;;
3991;SDS011;2010;48.194;16.394;2022-09-17T11:28:01;4.73;;;1.60;;
3991;SDS011;2010;48.194;16.394;2022-09-17T11:30:38;5.20;;;2.23;;
3991;SDS011;2010;48.194;16.394;2022-09-17T11:33:23;3.63;;;1.80;;
3991;SDS011;2010;48.194;16.394;2022-09-17T11:35:58;1.63;;;1.53;;
3991;SDS011;2010;48.194;16.394;2022-09-17T11:38:36;2.27;;;1.80;;
3991;SDS011;2010;48.194;16.394;2022-09-17T11:41:09;1.93;;;1.73;;
3991;SDS011;2010;48.194;16.394;2022-09-17T11:43:41;4.73;;;1.50;;
3991;SDS011;2010;48.194;16.394;2022-09-17T11:46:13;7.23;;;1.70;;
3991;SDS011;2010;48.194;16.394;2022-09-17T11:48:44;3.97;;;2.13;;
3991;SDS011;2010;48.194;16.394;2022-09-17T11:51:17;3.27;;;2.40;;
3991;SDS011;2010;48.194;16.394;2022-09-17T11:53:50;2.03;;;1.83;;
3991;SDS011;2010;48.194;16.394;2022-09-17T11:56:22;3.20;;;1.83;;
3991;SDS011;2010;48.194;16.394;2022-09-17T11:58:53;2.40;;;2.30;;
3991;SDS011;2010;48.194;16.394;2022-09-17T12:01:25;2.37;;;2.20;;
3991;SDS011;2010;48.194;16.394;2022-09-17T12:03:58;5.60;;;2.13;;
3991;SDS011;2010;48.194;16.394;2022-09-17T12:06:31;4.17;;;2.57;;
3991;SDS011;2010;48.194;16.394;2022-09-17T12:09:07;3.03;;;2.00;;
3991;SDS011;2010;48.194;16.394;2022-09-17T12:11:39;3.10;;;1.77;;
3991;SDS011;2010;48.194;16.394;2022-09-17T12:14:12;3.63;;;2.00;;
3991;SDS011;2010;48.194;16.394;2022-09-17T12:16:44;5.83;;;2.00;;
3991;SDS011;2010;48.194;16.394;2022-09-17T12:19:13;4.63;;;2.53;;
3991;SDS011;2010;48.194;16.394;2022-09-17T12:21:45;3.27;;;2.07;;
3991;SDS011;2010;48.194;16.394;2022-09-17T12:24:17;4.80;;;2.47;;
3991;SDS011;2010;48.194;16.394;2022-09-17T12:26:52;9.30;;;3.03;;
3991;SDS011;2010;48.194;16.394;2022-09-17T12:29:35;4.50;;;2.50;;
3991;SDS011;2010;48.194;16.394;2022-09-17T12:32:23;3.90;;;2.33;;
3991;SDS011;2010;48.194;16.394;2022-09-17T12:35:00;3.77;;;1.97;;
3991;SDS011;2010;48.194;16.394;2022-09-17T12:37:33;5.60;;;2.00;;
3991;SDS011;2010;48.194;16.394;2022-09-17T12:40:10;7.80;;;2.37;;
3991;SDS011;2010;48.194;16.394;2022-09-17T12:42:49;3.73;;;2.13;;
3991;SDS011;2010;48.194;16.394;2022-09-17T12:45:37;2.37;;;2.00;;
3991;SDS011;2010;48.194;16.394;2022-09-17T12:48:22;3.87;;;2.17;;
3991;SDS011;2010;48.194;16.394;2022-09-17T12:51:03;2.60;;;1.97;;
3991;SDS011;2010;48.194;16.394;2022-09-17T12:53:40;3.63;;;1.90;;
3991;SDS011;2010;48.194;16.394;2022-09-17T12:56:15;4.70;;;2.27;;
3991;SDS011;2010;48.194;16.394;2022-09-17T12:58:57;3.80;;;2.80;;
3991;SDS011;2010;48.194;16.394;2022-09-17T13:01:31;2.97;;;2.13;;
3991;SDS011;2010;48.194;16.394;2022-09-17T13:04:06;6.03;;;2.10;;
3991;SDS011;2010;48.194;16.394;2022-09-17T13:06:52;3.93;;;2.10;;
3991;SDS011;2010;48.194;16.394;2022-09-17T13:09:35;2.33;;;2.00;;
3991;SDS011;2010;48.194;16.394;2022-09-17T13:12:19;5.20;;;2.07;;
3991;SDS011;2010;48.194;16.394;2022-09-17T13:15:01;4.23;;;1.73;;
3991;SDS011;2010;48.194;16.394;2022-09-17T13:17:48;3.00;;;1.70;;
3991;SDS011;2010;48.194;16.394;2022-09-17T13:20:46;14.70;;;3.20;;
3991;SDS011;2010;48.194;16.394;2022-09-17T13:23:27;3.10;;;1.60;;
3991;SDS011;2010;48.194;16.394;2022-09-17T13:25:57;3.73;;;1.83;;
3991;SDS011;2010;48.194;16.394;2022-09-17T13:28:41;6.23;;;2.07;;
3991;SDS011;2010;48.194;16.394;2022-09-17T13:31:18;4.90;;;2.17;;
3991;SDS011;2010;48.194;16.394;2022-09-17T13:33:47;3.70;;;2.03;;
3991;SDS011;2010;48.194;16.394;2022-09-17T13:36:38;4.13;;;2.30;;
3991;SDS011;2010;48.194;16.394;2022-09-17T13:39:08;3.40;;;2.20;;
3991;SDS011;2010;48.194;16.394;2022-09-17T13:41:39;2.10;;;1.93;;
3991;SDS011;2010;48.194;16.394;2022-09-17T13:44:09;3.30;;;1.80;;
3991;SDS011;2010;48.194;16.394;2022-09-17T13:46:38;4.67;;;2.07;;
3991;SDS011;2010;48.194;16.394;2022-09-17T13:49:10;1.80;;;1.70;;
3991;SDS011;2010;48.194;16.394;2022-09-17T13:51:42;3.47;;;1.90;;
3991;SDS011;2010;48.194;16.394;2022-09-17T13:54:20;4.60;;;2.17;;
3991;SDS011;2010;48.194;16.394;2022-09-17T13:57:03;3.37;;;1.87;;
3991;SDS011;2010;48.194;16.394;2022-09-17T13:59:36;2.80;;;2.50;;
3991;SDS011;2010;48.194;16.394;2022-09-17T14:08:10;4.10;;;1.70;;
3991;SDS011;2010;48.194;16.394;2022-09-17T14:10:53;4.87;;;1.97;;
3991;SDS011;2010;48.194;16.394;2022-09-17T14:13:27;1.57;;;1.47;;
3991;SDS011;2010;48.194;16.394;2022-09-17T14:19:19;6.63;;;1.90;;
3991;SDS011;2010;48.194;16.394;2022-09-17T14:21:56;3.80;;;2.20;;
3991;SDS011;2010;48.194;16.394;2022-09-17T14:24:31;2.87;;;1.50;;
3991;SDS011;2010;48.194;16.394;2022-09-17T14:27:10;3.57;;;1.80;;
3991;SDS011;2010;48.194;16.394;2022-09-17T14:32:30;2.20;;;1.57;;
3991;SDS011;2010;48.194;16.394;2022-09-17T14:35:12;5.80;;;1.87;;
3991;SDS011;2010;48.194;16.394;2022-09-17T14:37:47;4.67;;;2.00;;
3991;SDS011;2010;48.194;16.394;2022-09-17T14:40:21;5.20;;;2.03;;
3991;SDS011;2010;48.194;16.394;2022-09-17T14:42:51;3.80;;;1.87;;
3991;SDS011;2010;48.194;16.394;2022-09-17T14:45:26;2.70;;;1.67;;
3991;SDS011;2010;48.194;16.394;2022-09-17T14:56:44;3.50;;;2.20;;
3991;SDS011;2010;48.194;16.394;2022-09-17T14:59:18;2.90;;;2.07;;
3991;SDS011;2010;48.194;16.394;2022-09-17T15:01:49;4.13;;;1.50;;
3991;SDS011;2010;48.194;16.394;2022-09-17T15:04:23;2.60;;;1.97;;
3991;SDS011;2010;48.194;16.394;2022-09-17T15:06:52;4.63;;;2.20;;
3991;SDS011;2010;48.194;16.394;2022-09-17T15:09:33;2.93;;;1.90;;
3991;SDS011;2010;48.194;16.394;2022-09-17T15:12:01;7.87;;;1.87;;
3991;SDS011;2010;48.194;16.394;2022-09-17T15:14:31;3.13;;;1.87;;
3991;SDS011;2010;48.194;16.394;2022-09-17T15:17:01;1.83;;;1.27;;
3991;SDS011;2010;48.194;16.394;2022-09-17T15:19:32;3.70;;;1.43;;
3991;SDS011;2010;48.194;16.394;2022-09-17T15:22:03;1.63;;;1.33;;
3991;SDS011;2010;48.194;16.394;2022-09-17T15:24:34;3.30;;;1.50;;
3991;SDS011;2010;48.194;16.394;2022-09-17T15:27:10;2.07;;;1.60;;
3991;SDS011;2010;48.194;16.394;2022-09-17T15:29:41;2.83;;;1.67;;
3991;SDS011;2010;48.194;16.394;2022-09-17T15:32:11;2.30;;;1.67;;
3991;SDS011;2010;48.194;16.394;2022-09-17T15:34:42;3.30;;;1.70;;
3991;SDS011;2010;48.194;16.394;2022-09-17T15:37:16;3.83;;;1.77;;
3991;SDS011;2010;48.194;16.394;2022-09-17T15:39:46;4.10;;;1.60;;
3991;SDS011;2010;48.194;16.394;2022-09-17T15:42:17;2.60;;;1.40;;
3991;SDS011;2010;48.194;16.394;2022-09-17T15:44:47;3.70;;;1.43;;
3991;SDS011;2010;48.194;16.394;2022-09-17T15:50:11;1.40;;;1.30;;
3991;SDS011;2010;48.194;16.394;2022-09-17T15:52:40;1.47;;;1.17;;
3991;SDS011;2010;48.194;16.394;2022-09-17T15:55:28;2.73;;;1.50;;
3991;SDS011;2010;48.194;16.394;2022-09-17T15:58:01;1.77;;;1.43;;
3991;SDS011;2010;48.194;16.394;2022-09-17T16:00:31;1.50;;;1.40;;
3991;SDS011;2010;48.194;16.394;2022-09-17T16:03:14;1.23;;;1.20;;
3991;SDS011;2010;48.194;16.394;2022-09-17T16:06:37;1.87;;;1.27;;
3991;SDS011;2010;48.194;16.394;2022-09-17T16:12:04;1.33;;;1.23;;
3991;SDS011;2010;48.194;16.394;2022-09-17T16:14:32;1.13;;;1.00;;